createdAt,value
2022-12-01T00:01:40.254Z,101644.00
2022-12-01T00:11:40.275Z,101644.00
2022-12-01T00:21:40.291Z,101640.00
2022-12-01T00:31:40.460Z,101640.00
2022-12-01T00:41:40.257Z,101640.00
2022-12-01T00:51:40.267Z,101640.00
2022-12-01T01:01:40.385Z,101644.00
2022-12-01T01:11:40.299Z,101648.00
2022-12-01T01:21:40.500Z,101652.00
2022-12-01T01:31:40.943Z,101657.00
2022-12-01T01:41:41.314Z,101661.00
2022-12-01T01:51:41.387Z,101667.00
2022-12-01T02:01:41.425Z,101671.00
2022-12-01T02:11:43.946Z,101671.00
2022-12-01T02:21:45.011Z,101669.00
2022-12-01T02:31:45.477Z,101669.00
2022-12-01T02:41:45.455Z,101667.00
2022-12-01T02:51:45.451Z,101661.00
2022-12-01T03:01:45.730Z,101657.00
2022-12-01T03:11:45.459Z,101659.00
2022-12-01T03:21:46.121Z,101663.00
2022-12-01T03:31:46.604Z,101663.00
2022-12-01T03:41:46.540Z,101667.00
2022-12-01T03:51:46.514Z,101665.00
2022-12-01T04:01:46.470Z,101665.00
2022-12-01T04:12:11.945Z,101663.00
2022-12-01T04:22:12.613Z,101667.00
2022-12-01T04:32:13.051Z,101671.00
2022-12-01T04:42:13.638Z,101665.00
2022-12-01T04:52:13.662Z,101663.00
2022-12-01T05:02:13.658Z,101663.00
2022-12-01T05:12:13.780Z,101665.00
2022-12-01T05:22:13.618Z,101669.00
2022-12-01T05:32:13.891Z,101667.00
2022-12-01T05:42:13.604Z,101669.00
2022-12-01T05:52:13.633Z,101673.00
2022-12-01T06:02:13.679Z,101673.00
2022-12-01T06:12:13.662Z,101677.00
2022-12-01T06:22:13.656Z,101677.00
2022-12-01T06:32:13.713Z,101687.00
2022-12-01T06:42:13.680Z,101689.00
2022-12-01T06:52:13.685Z,101699.00
2022-12-01T07:02:14.593Z,101703.00
2022-12-01T07:12:15.006Z,101710.00
2022-12-01T07:22:15.297Z,101710.00
2022-12-01T07:32:15.884Z,101718.00
2022-12-01T07:42:15.757Z,101726.00
2022-12-01T07:52:15.848Z,101730.00
2022-12-01T08:02:16.000Z,101736.00
2022-12-01T08:12:16.329Z,101748.00
2022-12-01T08:22:16.905Z,101755.00
2022-12-01T08:32:16.927Z,101761.00
2022-12-01T08:42:16.904Z,101767.00
2022-12-01T08:52:17.259Z,101767.00
2022-12-01T09:02:22.232Z,101771.00
2022-12-01T09:12:22.885Z,101775.00
2022-12-01T09:22:22.920Z,101771.00
2022-12-01T09:32:22.889Z,101773.00
2022-12-01T09:42:24.920Z,101775.00
2022-12-01T09:52:25.031Z,101777.00
2022-12-01T10:02:24.989Z,101769.00
2022-12-01T10:12:27.325Z,101769.00
2022-12-01T10:22:26.938Z,101767.00
2022-12-01T10:32:28.891Z,101763.00
2022-12-01T10:42:29.084Z,101757.00
2022-12-01T10:52:28.993Z,101752.00
2022-12-01T11:02:29.241Z,101748.00
2022-12-01T11:12:30.095Z,101746.00
2022-12-01T11:22:30.411Z,101744.00
2022-12-01T11:32:30.057Z,101738.00
2022-12-01T11:42:30.063Z,101736.00
2022-12-01T11:52:30.388Z,101734.00
2022-12-01T12:02:30.145Z,101730.00
2022-12-01T12:12:30.142Z,101730.00
2022-12-01T12:22:30.109Z,101728.00
2022-12-01T12:32:30.076Z,101722.00
2022-12-01T12:42:30.178Z,101712.00
2022-12-01T12:52:30.158Z,101706.00
2022-12-01T13:02:30.276Z,101701.00
2022-12-01T13:12:30.220Z,101695.00
2022-12-01T13:22:30.189Z,101687.00
2022-12-01T13:32:30.219Z,101679.00
2022-12-01T13:42:32.127Z,101673.00
2022-12-01T13:52:32.309Z,101671.00
2022-12-01T14:02:32.327Z,101665.00
2022-12-01T14:12:34.187Z,101663.00
2022-12-01T14:22:34.272Z,101665.00
2022-12-01T14:32:34.236Z,101661.00
2022-12-01T14:42:53.794Z,101661.00
2022-12-01T14:52:54.399Z,101659.00
2022-12-01T15:02:54.346Z,101661.00
2022-12-01T15:12:54.404Z,101661.00
2022-12-01T15:22:54.303Z,101663.00
2022-12-01T15:32:54.335Z,101659.00
2022-12-01T15:42:54.338Z,101667.00
2022-12-01T15:52:54.373Z,101675.00
2022-12-01T16:02:54.561Z,101691.00
2022-12-01T16:12:54.472Z,101691.00
2022-12-01T16:22:56.174Z,101683.00
2022-12-01T16:32:56.463Z,101673.00
2022-12-01T16:42:56.639Z,101663.00
2022-12-01T16:52:56.428Z,101661.00
2022-12-01T17:02:56.580Z,101667.00
2022-12-01T17:12:56.523Z,101669.00
2022-12-01T17:22:59.731Z,101677.00
2022-12-01T17:32:59.444Z,101679.00
2022-12-01T17:42:59.600Z,101683.00
2022-12-01T17:52:59.537Z,101681.00
2022-12-01T18:02:59.637Z,101683.00
2022-12-01T18:12:59.632Z,101689.00
2022-12-01T18:22:59.556Z,101691.00
2022-12-01T18:32:59.633Z,101693.00
2022-12-01T18:43:01.801Z,101699.00
2022-12-01T18:53:01.661Z,101703.00
2022-12-01T19:03:02.586Z,101705.00
2022-12-01T19:13:02.761Z,101699.00
2022-12-01T19:23:02.735Z,101693.00
2022-12-01T19:33:03.386Z,101693.00
2022-12-01T19:43:03.606Z,101691.00
2022-12-01T19:53:03.915Z,101691.00
2022-12-01T20:03:03.757Z,101695.00
2022-12-01T20:13:04.435Z,101689.00
2022-12-01T20:23:04.714Z,101689.00
2022-12-01T20:33:04.650Z,101689.00
2022-12-01T20:43:04.735Z,101691.00
2022-12-01T20:53:04.768Z,101687.00
2022-12-01T21:03:04.773Z,101687.00
2022-12-01T21:13:42.558Z,101691.00
2022-12-01T21:23:42.756Z,101681.00
2022-12-01T21:33:43.011Z,101679.00
2022-12-01T21:43:42.714Z,101681.00
2022-12-01T21:53:42.894Z,101671.00
2022-12-01T22:03:42.827Z,101669.00
2022-12-01T22:13:42.808Z,101663.00
2022-12-01T22:23:42.910Z,101650.00
2022-12-01T22:33:42.796Z,101638.00
2022-12-01T22:43:42.948Z,101628.00
2022-12-01T22:53:42.879Z,101628.00
2022-12-01T23:03:42.832Z,101628.00
2022-12-01T23:13:42.877Z,101630.00
2022-12-01T23:23:42.976Z,101626.00
2022-12-01T23:33:42.890Z,101624.00
2022-12-01T23:43:42.877Z,101612.00
2022-12-01T23:53:42.917Z,101605.00
